CheckWX is a tool to help pilots better visualize weather data.  It is not intended as a substitute for an official pre-flight weather briefing.

03:12:43 UTC

KSJN METAR
St Johns Industrial Airpark
St Johns, Arizona, USA
Current

19 mins ago

KSJN 260254Z AUTO 25006KT 10SM CLR 18/M10 A2996 RMK AO2 SLP073 T01831100 53007
Observed
May-26 @ 02:54 UTC
Wind
  • 250° at 6 KTS
Visibility
10 SM
Flight Rules
VFR
Cloud Levels
  • Clear skies
Temperature
18°C / 64°F
Dewpoint
-10°C / 14°F
Humidity
14%
Altimeter
29.96" Hg
Pressure
1014.52 hPa
Previous

1 hour ago

KSJN 260154Z AUTO 24012KT 10SM CLR 22/M12 A2994 RMK AO2 SLP067 T02221117
Observed
May-26 @ 01:54 UTC
Wind
  • 240° at 12 KTS
Visibility
10 SM
Flight Rules
VFR
Cloud Levels
  • Clear skies
Temperature
22°C / 72°F
Dewpoint
-12°C / 10°F
Humidity
9%
Altimeter
29.94" Hg
Pressure
1013.92 hPa
Previous

2 hours ago

KSJN 260054Z AUTO 23014G24KT 10SM CLR 24/M11 A2993 RMK AO2 PK WND 23030/0011 SLP071 T02391106
Observed
May-26 @ 00:54 UTC
Wind
  • 230° at 14 KTS
  • Gusting to 24 KTS
Visibility
10 SM
Flight Rules
VFR
Cloud Levels
  • Clear skies
Temperature
24°C / 75°F
Dewpoint
-11°C / 12°F
Humidity
9%
Altimeter
29.93" Hg
Pressure
1013.52 hPa